Bookmark and Share
Track history (hours):
 

CSAV Rio Maipo

Last reported at 2014-Apr-13 08:16 UTC. Time now 2014-Apr-19 12:14 UTC.
Position N 35°54' W 005°30'.

Length 210.9 m; beam 32.3 m; draft 12 m.

Type: Ship (hazmat cat A). MMSI: 636091292.

NotesDate/timePositionNaut miles runAvg speedWind from/ knotsBaromVisibWave heightAir tempDewpointWater temp
2014-Apr-13 08:16N 35°54' W 005°30'2 3.0
2014-Apr-13 07:32N 35°54' W 005°33'1 0.8
2014-Apr-13 06:18N 35°55' W 005°32'5 6.0
2014-Apr-13 05:34N 35°59' W 005°29'9 8.5
2014-Apr-13 04:34N 36°06' W 005°24'4 3.7
2014-Apr-13 03:32N 36°10' W 005°25'0 0.1
2014-Apr-13 02:32N 36°10' W 005°25'0 0.1
2014-Apr-13 01:29N 36°09' W 005°25'0 0.0
2014-Apr-13 00:29N 36°09' W 005°25'0 0.1
2014-Apr-12 23:32N 36°10' W 005°25'0 0.0
2014-Apr-12 22:29N 36°09' W 005°25'0 0.0
2014-Apr-12 21:32N 36°09' W 005°25'0 0.0
2014-Apr-12 20:32N 36°10' W 005°25'0 0.0
2014-Apr-12 19:32N 36°09' W 005°25'0 0.0
2014-Apr-12 18:32N 36°10' W 005°25'0 0.0
2014-Apr-12 17:26N 36°10' W 005°25'0 0.1
2014-Apr-12 16:32N 36°10' W 005°25'0 0.1
2014-Apr-12 15:32N 36°09' W 005°25'0 0.0
2014-Apr-12 14:32N 36°09' W 005°25'0 0.1
2014-Apr-12 13:32N 36°10' W 005°25'0 0.0
2014-Apr-12 12:32N 36°10' W 005°25'0 0.0
2014-Apr-12 11:32N 36°10' W 005°25'0 0.0
2014-Apr-12 10:29N 36°10' W 005°25'0 0.0
2014-Apr-12 09:32N 36°10' W 005°25'0 0.1
2014-Apr-12 08:32N 36°09' W 005°25'0 0.0
2014-Apr-12 07:32N 36°09' W 005°25'0 0.0
2014-Apr-12 06:32N 36°09' W 005°25'0 0.0
2014-Apr-12 05:32N 36°09' W 005°25'0 0.0
2014-Apr-12 04:32N 36°09' W 005°25'0 0.0
2014-Apr-12 03:26N 36°09' W 005°25'0 0.0
2014-Apr-12 02:32N 36°09' W 005°25'0 0.0
2014-Apr-12 01:32N 36°09' W 005°25'0 0.0
2014-Apr-12 00:32N 36°09' W 005°25'0 0.1
2014-Apr-11 23:32N 36°10' W 005°25'0 0.0
2014-Apr-11 22:23N 36°10' W 005°25'0 0.0
2014-Apr-11 21:32N 36°10' W 005°25'0 0.1
2014-Apr-11 20:29N 36°10' W 005°26'0 0.0
2014-Apr-11 19:32N 36°10' W 005°26'0 0.0
2014-Apr-11 18:32N 36°10' W 005°26'0 0.0
2014-Apr-11 17:32N 36°10' W 005°26'0 0.0
2014-Apr-11 16:32N 36°10' W 005°26'0 0.0
2014-Apr-11 15:32N 36°10' W 005°26'0 0.0
2014-Apr-11 14:29N 36°10' W 005°26'0 0.0
2014-Apr-11 13:32N 36°10' W 005°26'0 0.1
2014-Apr-11 12:29N 36°10' W 005°26'0 0.1
2014-Apr-11 11:26N 36°10' W 005°26'0 0.0
2014-Apr-11 10:32N 36°10' W 005°26'0 0.1
2014-Apr-11 09:32N 36°10' W 005°25'0 0.1
2014-Apr-11 08:32N 36°10' W 005°26'0 0.1
2014-Apr-11 07:32N 36°10' W 005°26'0 0.1
2014-Apr-11 06:23N 36°09' W 005°26'0 0.1
2014-Apr-11 05:32N 36°09' W 005°25'0 0.1
2014-Apr-11 04:32N 36°09' W 005°26'0 0.0
2014-Apr-11 03:32N 36°09' W 005°26'0 0.0
2014-Apr-11 02:32N 36°09' W 005°26'0 0.0
2014-Apr-11 01:32N 36°09' W 005°26'0 0.1
2014-Apr-11 00:32N 36°10' W 005°26'0 0.1
2014-Apr-10 23:32N 36°10' W 005°26'0 0.2
2014-Apr-10 22:32N 36°09' W 005°25'1 0.8
2014-Apr-10 21:30N 36°09' W 005°26'0 0.0
2014-Apr-10 20:15N 36°09' W 005°26'0 0.0
2014-Apr-10 19:33N 36°09' W 005°26'0 0.0
2014-Apr-10 18:30N 36°09' W 005°26'0 0.0
2014-Apr-10 17:21N 36°09' W 005°26'0 0.0
2014-Apr-10 16:33N 36°09' W 005°26'0 0.0
2014-Apr-10 15:33N 36°09' W 005°26'0 0.0
2014-Apr-10 14:33N 36°09' W 005°26'0 0.0
2014-Apr-10 13:33N 36°09' W 005°26'0 0.0
2014-Apr-10 12:33N 36°09' W 005°26'0 0.0
2014-Apr-10 11:33N 36°09' W 005°26'0 0.0
2014-Apr-10 07:09N 36°09' W 005°26'0 0.0
2014-Apr-10 05:33N 36°09' W 005°26'0 0.0
2014-Apr-10 04:33N 36°09' W 005°26'0 0.0
2014-Apr-10 03:06N 36°09' W 005°26'0 0.0
2014-Apr-10 02:30N 36°09' W 005°26'0 0.0
2014-Apr-10 01:33N 36°09' W 005°26'0 0.0
2014-Apr-10 00:30N 36°09' W 005°26'0 0.0
2014-Apr-09 23:33N 36°09' W 005°26'2 2.0
2014-Apr-09 22:33N 36°08' W 005°24'0 0.1
2014-Apr-09 21:28N 36°08' W 005°25'0 0.0
2014-Apr-09 20:31N 36°08' W 005°25'0 0.1
2014-Apr-09 19:31N 36°08' W 005°25'0 0.0
2014-Apr-09 18:31N 36°08' W 005°25'0 0.0
2014-Apr-09 17:28N 36°08' W 005°25'0 0.0
2014-Apr-09 16:22N 36°08' W 005°25'0 0.1
2014-Apr-09 15:31N 36°08' W 005°25'0 0.0
2014-Apr-09 14:31N 36°07' W 005°25'0 0.0
2014-Apr-09 13:31N 36°07' W 005°25'0 0.1
2014-Apr-09 12:31N 36°08' W 005°25'0 0.0
2014-Apr-09 11:31N 36°08' W 005°25'0 0.1
2014-Apr-09 10:31N 36°07' W 005°25'3 3.3
2014-Apr-09 09:33N 36°05' W 005°23'1010.4
2014-Apr-09 08:33N 35°56' W 005°30'6 5.7
2014-Apr-09 07:31N 35°52' W 005°36'0 0.0
2014-Apr-09 06:31N 35°52' W 005°36'0 0.0
2014-Apr-09 05:04N 35°52' W 005°36'0 0.0
2014-Apr-09 04:25N 35°52' W 005°36'0 0.1
2014-Apr-09 03:25N 35°52' W 005°36'0 0.0
2014-Apr-09 02:31N 35°52' W 005°36'0 0.0
2014-Apr-09 01:31N 35°52' W 005°36'0 0.1
2014-Apr-09 00:31N 35°52' W 005°36'0 0.1
2014-Apr-08 23:28N 35°52' W 005°36'4 3.8
2014-Apr-08 22:34N 35°55' W 005°32'10 9.6
2014-Apr-08 21:34N 36°00' W 005°23'1110.7
2014-Apr-08 20:33N 36°03' W 005°10'1312.0
2014-Apr-08 19:28N 36°05' W 004°54'22310.7
2014-Apr-07 22:33N 37°32' W 000°37'1313.0
2014-Apr-07 21:33N 37°42' W 000°27'1313.1
2014-Apr-07 20:33N 37°53' W 000°18'1313.1
2014-Apr-07 19:33N 38°04' W 000°09'5312.6
2014-Apr-07 15:21N 38°50' E 000°26'1113.7
2014-Apr-07 14:31N 39°00' E 000°31'1511.9
2014-Apr-07 13:17N 39°14' E 000°38'3913.7
2014-Apr-07 10:28N 39°50' E 000°56'1617.9
2014-Apr-07 09:33N 40°06' E 000°59'1414.4
2014-Apr-07 08:33N 40°21' E 001°01'1212.3
2014-Apr-07 07:33N 40°33' E 001°06'0 0.1
2014-Apr-07 06:33N 40°33' E 001°06'0 0.0
2014-Apr-07 05:33N 40°33' E 001°06'0 0.1
2014-Apr-07 04:33N 40°33' E 001°05'0 0.1
2014-Apr-07 03:33N 40°32' E 001°05'0 0.0
2014-Apr-07 02:30N 40°32' E 001°06'0 0.1
2014-Apr-07 01:30N 40°32' E 001°06'0 0.0
2014-Apr-07 00:33N 40°32' E 001°06'0 0.0
2014-Apr-06 23:15N 40°32' E 001°06'0 0.0
2014-Apr-06 22:30N 40°32' E 001°06'0 0.1
2014-Apr-06 21:30N 40°32' E 001°06'0 0.1
2014-Apr-06 20:33N 40°33' E 001°05'0 0.0
2014-Apr-06 19:30N 40°33' E 001°05'0 0.2
2014-Apr-06 18:33N 40°32' E 001°06'0 0.1
2014-Apr-06 17:33N 40°33' E 001°06'0 0.1
2014-Apr-06 15:33N 40°33' E 001°06'0 0.1
2014-Apr-06 14:33N 40°33' E 001°05'0 0.0
2014-Apr-06 13:33N 40°33' E 001°05'0 0.0
2014-Apr-06 12:33N 40°32' E 001°05'0 0.0
2014-Apr-06 11:33N 40°33' E 001°05'0 0.1
2014-Apr-06 10:33N 40°33' E 001°06'0 0.0
2014-Apr-06 09:33N 40°33' E 001°05'0 0.0
2014-Apr-06 08:33N 40°33' E 001°06'0 0.1
2014-Apr-06 07:33N 40°32' E 001°06'0 0.0
2014-Apr-06 06:33N 40°32' E 001°06'0 0.1
2014-Apr-06 05:30N 40°32' E 001°06'0 0.0
2014-Apr-06 04:33N 40°32' E 001°06'0 0.0
2014-Apr-06 03:33N 40°32' E 001°06'0 0.0
2014-Apr-06 02:33N 40°32' E 001°06'0 0.1
2014-Apr-06 00:09N 40°32' E 001°06'0 0.2
2014-Apr-05 23:33N 40°33' E 001°06'0 0.0
2014-Apr-05 22:09N 40°33' E 001°06'0 0.1
2014-Apr-05 21:33N 40°33' E 001°06'0 0.0
2014-Apr-05 20:33N 40°33' E 001°06'0 0.0
2014-Apr-05 19:33N 40°33' E 001°06'0 0.0
2014-Apr-05 17:33N 40°33' E 001°06'0 0.0
2014-Apr-05 16:27N 40°33' E 001°06'0 0.0
2014-Apr-05 15:33N 40°33' E 001°06'0 0.0
2014-Apr-05 14:33N 40°33' E 001°06'0 0.1
2014-Apr-05 13:33N 40°33' E 001°05'0 0.1
2014-Apr-05 12:33N 40°32' E 001°05'0 0.1
2014-Apr-05 11:33N 40°32' E 001°06'0 0.0
2014-Apr-05 10:33N 40°32' E 001°06'0 0.1
2014-Apr-05 09:33N 40°32' E 001°06'0 0.0
2014-Apr-05 08:21N 40°32' E 001°06'0 0.1
2014-Apr-05 07:33N 40°32' E 001°06'0 0.0
2014-Apr-05 06:33N 40°32' E 001°06'0 0.1
2014-Apr-05 05:33N 40°32' E 001°06'0 0.0
2014-Apr-05 04:27N 40°32' E 001°06'0 0.0
2014-Apr-05 03:33N 40°32' E 001°06'0 0.0
2014-Apr-04 23:09N 40°32' E 001°06'0 0.1
2014-Apr-04 22:33N 40°33' E 001°06'0 0.1
2014-Apr-04 21:33N 40°33' E 001°06'0 0.0
2014-Apr-04 20:33N 40°33' E 001°06'0 0.0
2014-Apr-04 19:33N 40°33' E 001°06'0 0.0
2014-Apr-04 18:33N 40°33' E 001°06'0 0.0
2014-Apr-04 16:27N 40°33' E 001°06'0 0.2
2014-Apr-04 15:33N 40°32' E 001°06'0 0.1
2014-Apr-04 14:21N 40°32' E 001°06'0 0.0
2014-Apr-04 13:33N 40°32' E 001°06'0 0.0
2014-Apr-04 12:27N 40°32' E 001°06'0 0.0
2014-Apr-04 10:27N 40°32' E 001°06'0 0.0
2014-Apr-04 09:25N 40°32' E 001°06'0 0.1
2014-Apr-04 08:31N 40°32' E 001°06'0 0.0
2014-Apr-04 07:13N 40°32' E 001°06'0 0.0
2014-Apr-04 06:32N 40°32' E 001°06'0 0.0
2014-Apr-04 05:24N 40°32' E 001°06'0 0.0
2014-Apr-04 04:15N 40°32' E 001°06'0 0.0
2014-Apr-04 01:28N 40°32' E 001°06'0 0.0
2014-Apr-03 23:22N 40°32' E 001°06'0 0.0
2014-Apr-03 17:28N 40°33' E 001°06'0 0.0
2014-Apr-03 16:10N 40°33' E 001°06'0 0.0
2014-Apr-03 09:29N 40°33' E 001°05'  

Dump ship's entire track history

sailing weather and tide predictions

CSAV Rio Maipo — A8GH5 — position and weather